ADDS METAR Data INFO

IDs: Format: Raw Decoded Include TAF

Data at: 2046 UTC 31 Mar 2015

Region: TOP
KATL 311952Z 25009G17KT 10SM FEW045TCU SCT055 BKN250 23/12 A2996 RMK AO2 SLP142 TCU W-NW T02330122

KBOS 311954Z 25016G22KT 10SM FEW055 BKN120 BKN250 09/M05 A2969 RMK AO2 SLP055 T00891050

KBWI 311954Z 25011G16KT 10SM FEW080 BKN095 18/M03 A2959 RMK AO2 PK WND 20026/1900 SLP021 VIRGA ALQDS T01831028

KCLE 312017Z 36011KT 10SM OVC011 03/M01 A2991 RMK AO2 T00281011

KCLT 311952Z 23016G24KT 10SM FEW250 24/M02 A2985 RMK AO2 SLP102 T02391022

KCVG 311952Z 29020G30KT 10SM FEW070 19/01 A2983 RMK AO2 PK WND 32033/1940 SLP099 T01940011

KDCA 311952Z 21016G25KT 10SM BKN100 BKN150 BKN250 21/M01 A2958 RMK AO2 PK WND 22029/1936 SLP016 T02111011

KDEN 311953Z VRB04KT 10SM FEW100 SCT250 23/M09 A2996 RMK AO2 SLP088 T02281089

KDFW 311953Z 17011KT 10SM FEW040 SCT300 28/18 A2992 RMK AO2 SLP124 T02780183

KDTW 311953Z 32006KT 10SM OVC020 06/01 A2991 RMK AO2 SLP134 T00610006

KEWR 312037Z 02007KT 10SM BKN010 BKN024 OVC080 04/03 A2977 RMK AO2 RAE35SNE03 P0000

KFLL 311953Z 09010KT 10SM FEW050 26/13 A3009 RMK AO2 SLP190 T02610133

KIAD 311952Z 22012G21KT 10SM BKN047 OVC085 19/M01 A2957 RMK AO2 PK WND 21029/1921 RAB39E51 SLP012 P0000 T01891011

KIAH 311953Z 19010KT 170V230 10SM BKN050 BKN250 27/15 A3002 RMK AO2 SLP165 T02670150

KJFK 311951Z 01010KT 10SM -RA SCT018 BKN024 OVC040 04/01 A2978 RMK AO2 SLP083 P0002 T00440006

KLAS 311956Z 19019G27KT 10SM BKN250 31/M07 A2985 RMK AO2 PK WND 18027/1948 SLP083 T03111072

KLAX 311953Z 26011KT 4SM HZ SCT010 SCT140 BKN180 17/13 A3003 RMK AO2 SLP167 T01720128

KLGA 311951Z 02005KT 9SM -RA BKN009 OVC022 03/01 A2978 RMK AO2 SLP082 P0005 T00330006

KMCO 311953Z 30010KT 10SM SCT050 BKN070 BKN280 28/15 A3006 RMK AO2 SLP178 T02830150

KMDW 311953Z 11007KT 10SM BKN040 BKN250 11/02 A2995 RMK AO2 SLP142 T01110022

KMEM 311954Z 00000KT 10SM FEW041 BKN048 OVC070 25/16 A2992 RMK AO2 SLP128 T02500156

KMIA 311953Z 12009G15KT 10SM FEW050 FEW300 26/10 A3010 RMK AO2 SLP192 T02610100

KMSP 311953Z 28009G15KT 10SM FEW100 FEW250 17/M02 A2990 RMK AO2 SLP128 T01721017

KORD 311951Z 35005KT 10SM FEW038 SCT045 13/01 A2993 RMK AO2 SLP136 T01280011

KPDX 311953Z 25009KT 10SM FEW030 SCT045 BKN140 12/06 A3017 RMK AO2 SLP214 T01170056

KPHL 311954Z 19003KT 10SM BKN075 OVC150 14/M02 A2966 RMK AO2 SLP044 T01441017

KPHX 311951Z 28005KT 10SM FEW120 FEW250 32/01 A2991 RMK AO2 SLP111 T03220011

KPIT 311951Z COR 36015KT 10SM FEW047 SCT060 BKN090 12/03 A2969 RMK AO2 PK WND 34026/1935 SLP063 T01220028 $

KSAN 311951Z 23006KT 10SM FEW020 BKN200 19/12 A3004 RMK AO2 SLP171 T01940117

KSEA 311953Z 22014G23KT 10SM FEW025 BKN036 BKN200 13/03 A3009 RMK AO2 SLP194 T01280033

KSFO 311956Z 29020G25KT 10SM FEW027 18/09 A3019 RMK AO2 PK WND 28026/1939 SLP224 T01780094

KSLC 311953Z 16021KT 10SM FEW090 FEW160 BKN250 24/M06 A2987 RMK AO2 PK WND 16028/1920 SLP077 ACSL DSNT N AND NW T02391061 PNO $

KSTL 311951Z 03005G19KT 10SM FEW250 24/01 A2995 RMK AO2 SLP135 T02390011

KTPA 311953Z 26012G18KT 10SM SCT033 BKN320 26/17 A3011 RMK AO2 SLP196 T02560167